Hyde, PA (16843)

2:28 AM EST on December 11, 2016 (GMT -0500)
Clearfield | | Change Station
Active Advisory: Winter Weather Advisory

Elev 1127 ft 41.02 °N, 78.46 °W | Updated 3 minutes ago

Overcast
Overcast
15.3 °F
Feels Like 15 °F
N
0.0
Wind Variable Wind from NW
Gusts 9.0 mph

Today
High -- | Low -- °F
--% Chance of Precip.
Yesterday
High -- | Low -- °F
Precip. -- in
Pressure 30.47 in
Visibility 9.0 miles
Clouds Scattered Clouds 12000 ft
Windchill 15 °F
Dew Point 13 °F
Humidity 91%
Rainfall 0.00 in
Snow Depth Not available.
7:29 AM 4:45 PM
Waxing Gibbous, 89% visible
METAR KFIG 110654Z AUTO 00000KT 9SM SCT120 M08/M09 A3039 RMK AO2 SLP316 T10831094
Pressure 30.47 in
Visibility 9.0 miles
Clouds Scattered Clouds 12000 ft
Windchill 15 °F
Dew Point 13 °F
Humidity 91%
Rainfall 0.00 in
Snow Depth Not available.
7:29 AM 4:45 PM
Waxing Gibbous, 89% visible
METAR KFIG 110654Z AUTO 00000KT 9SM SCT120 M08/M09 A3039 RMK AO2 SLP316 T10831094

10-Day Weather Forecast

Almanac

Astronomy

Dec. 11, 2016 Rise Set
Actual Time
Civil Twilight
Nautical Twilight
Astronomical Twilight
Moon
Length of Visible Light
Length of Day
Tomorrow will be .
, % of the Moon is Illuminated

Today's Extremes

State Highs State Lows

Community

WunderPhotos

Upload Photos

1,956,707 photos uploaded!

WunderBlog® & News

Nearby

Air Quality

  Air Quality AQ Index Pollutant
Not available.

Snow Depth

Station Depth Elevation

Earthquake Activity

City Distance Mag. Time & Date
Minimum magnitude displayed is 2.5.

Coastal Water Temperatures

Place Temperature

Stations

Nearby Weather Stations

Station Location Temp. Windchill Dew Point Humidity Wind Precip. Elev Updated Type
                   

Watches & Warnings

Winter Weather Advisory
Issued: 9:17 PM EST Dec. 10, 2016 – National Weather Service

... Winter Weather Advisory remains in effect from 4 am Sunday to
1 PM EST Monday...

* timing... snow will start in the west during the predawn hours
of Sunday and overspread the region Sunday morning. The area
from about Interstate 80 southward will likely see a
changeover to snow-sleet or freezing rain Sunday evening and
overnight into Monday morning.

* Snow accumulations... 3-6 inches from Interstate 80 northward.
1-3 inches south of the Interstate with a light coating of ice
likely late Sunday into Monday morning. Snowfall Sunday morning
is expected to be on the light side. Upwards of 1 to 2 inches of
snow will be possible by late afternoon... mainly north of
Interstate 80.

* Main impact... poor Road conditions and hazardous travel.

Precautionary/preparedness actions...

The Pennsylvania Department of Transportation reminds motorists
to adjust speeds based on driving conditions and to take it slow
in ice and snow.



Martin